Time;durP1;ratioP1;P1;durP2;ratioP2;P2;SDS_P1;SDS_P2;PMS_P1;PMS_P2;Temp;Humidity;BMP_temperature;BMP_pressure;BME280_temperature;BME280_humidity;BME280_pressure;Samples;Min_cycle;Max_cycle;Signal;HPM_P1;HPM_P2
2021/05/07 00:00:08;;;;;;;1.65;0.73;;;24.90;95.20;;;;;;4989045;28;20057;-75
2021/05/07 00:02:36;;;;;;;3.45;0.57;;;26.30;94.20;;;;;;4992596;28;20026;-72
2021/05/07 00:05:04;;;;;;;3.25;0.73;;;27.10;92.20;;;;;;4990267;28;20030;-74
2021/05/07 00:07:32;;;;;;;2.35;0.65;;;27.60;90.90;;;;;;4986067;28;20034;-74
2021/05/07 00:10:02;;;;;;;6.28;1.92;;;27.60;91.00;;;;;;4990511;28;20027;-73
2021/05/07 00:12:30;;;;;;;3.40;0.40;;;27.30;90.30;;;;;;4988899;28;20084;-74
2021/05/07 00:14:57;;;;;;;4.13;0.60;;;26.70;91.30;;;;;;4987569;28;20030;-72
2021/05/07 00:17:24;;;;;;;1.90;0.43;;;26.10;91.20;;;;;;4989944;28;20022;-73
2021/05/07 00:19:52;;;;;;;5.32;1.17;;;25.50;92.00;;;;;;4990706;28;20033;-73
2021/05/07 00:22:19;;;;;;;4.88;0.80;;;24.90;93.80;;;;;;4989769;28;20030;-72
2021/05/07 00:24:47;;;;;;;2.88;0.30;;;23.80;95.70;;;;;;4990664;28;20042;-74
2021/05/07 00:27:16;;;;;;;2.05;0.47;;;23.20;97.10;;;;;;4979622;28;20030;-74
2021/05/07 00:29:46;;;;;;;1.70;0.40;;;22.60;97.40;;;;;;4988820;28;20447;-73
2021/05/07 00:32:13;;;;;;;3.35;0.30;;;22.40;98.30;;;;;;4990254;28;20105;-73
2021/05/07 00:34:41;;;;;;;3.03;0.50;;;22.40;98.70;;;;;;4991343;28;20101;-73
2021/05/07 00:37:08;;;;;;;1.70;0.93;;;22.30;99.10;;;;;;4988254;28;20166;-75
2021/05/07 00:39:36;;;;;;;3.00;0.40;;;22.30;99.40;;;;;;4990185;28;20072;-73
2021/05/07 00:42:04;;;;;;;2.72;0.30;;;22.40;98.60;;;;;;4988106;28;20410;-75
2021/05/07 00:44:34;;;;;;;1.73;0.50;;;22.40;99.10;;;;;;4988879;28;20046;-73
2021/05/07 00:47:05;;;;;;;2.90;0.55;;;22.50;98.00;;;;;;4988624;28;20045;-72
2021/05/07 00:49:37;;;;;;;1.40;0.52;;;22.60;97.50;;;;;;4986726;28;20588;-75
2021/05/07 00:52:06;;;;;;;2.80;0.95;;;22.80;97.00;;;;;;4988072;28;20445;-74
2021/05/07 00:54:35;;;;;;;3.65;0.55;;;22.90;97.20;;;;;;4986188;28;20492;-74
2021/05/07 00:57:03;;;;;;;3.92;0.55;;;23.10;96.50;;;;;;4987815;28;20061;-74
2021/05/07 00:59:31;;;;;;;3.08;0.60;;;23.20;96.70;;;;;;4987481;28;20026;-72
2021/05/07 01:01:59;;;;;;;1.42;0.22;;;23.20;96.50;;;;;;4991969;28;20027;-75
2021/05/07 01:04:26;;;;;;;2.63;0.65;;;23.20;95.80;;;;;;4988790;28;20029;-74
2021/05/07 01:06:54;;;;;;;4.10;1.05;;;23.20;95.70;;;;;;4990032;28;20037;-74
2021/05/07 01:09:22;;;;;;;3.42;1.30;;;23.30;95.10;;;;;;4989910;28;20046;-74
2021/05/07 01:11:49;;;;;;;2.08;0.57;;;23.40;95.70;;;;;;4988753;28;20495;-75
2021/05/07 01:14:17;;;;;;;2.05;0.28;;;23.40;95.80;;;;;;4985052;28;20031;-74
2021/05/07 01:16:44;;;;;;;4.57;0.55;;;23.50;95.70;;;;;;4991475;28;20093;-74
2021/05/07 01:19:14;;;;;;;4.82;0.50;;;23.60;95.60;;;;;;4987409;28;20746;-74
2021/05/07 01:21:41;;;;;;;4.55;0.95;;;23.70;95.60;;;;;;4990541;28;20041;-73
2021/05/07 01:24:09;;;;;;;2.20;1.00;;;23.60;96.10;;;;;;4991412;28;20359;-73
2021/05/07 01:26:43;;;;;;;2.95;0.55;;;23.60;95.60;;;;;;4991288;28;20030;-73
2021/05/07 01:29:14;;;;;;;3.03;0.90;;;23.50;96.00;;;;;;4986676;28;20026;-73
2021/05/07 01:31:46;;;;;;;2.35;0.93;;;23.60;95.90;;;;;;4987779;28;20477;-72
2021/05/07 01:34:14;;;;;;;4.25;0.57;;;23.60;95.50;;;;;;4989191;28;20080;-73
2021/05/07 01:36:41;;;;;;;5.65;1.38;;;23.80;95.50;;;;;;4986568;28;20034;-73
2021/05/07 01:39:08;;;;;;;5.10;0.75;;;23.90;95.90;;;;;;4986127;28;20727;-72
2021/05/07 01:41:36;;;;;;;2.95;0.57;;;23.90;95.80;;;;;;4985439;28;20065;-74
2021/05/07 01:44:03;;;;;;;3.63;0.68;;;23.90;96.00;;;;;;4990455;28;20050;-75
2021/05/07 01:46:31;;;;;;;2.55;0.70;;;24.20;95.20;;;;;;4984228;28;20031;-72
2021/05/07 01:48:58;;;;;;;2.70;0.50;;;24.50;94.40;;;;;;4988658;28;20441;-74
2021/05/07 01:51:26;;;;;;;4.45;0.82;;;24.50;94.40;;;;;;4988870;28;20041;-72
2021/05/07 01:53:53;;;;;;;2.03;0.50;;;24.40;94.40;;;;;;4989207;28;20026;-75
2021/05/07 01:56:20;;;;;;;4.00;1.05;;;24.60;94.20;;;;;;4990458;28;20093;-76
2021/05/07 01:58:51;;;;;;;4.72;0.73;;;24.60;94.20;;;;;;4994068;28;20034;-76
2021/05/07 02:01:18;;;;;;;3.20;0.60;;;24.70;94.50;;;;;;4992826;28;20053;-75
2021/05/07 02:03:45;;;;;;;6.20;1.08;;;25.00;95.00;;;;;;4992021;28;20058;-75
2021/05/07 02:06:13;;;;;;;3.30;0.85;;;25.00;94.00;;;;;;4993260;28;20120;-75
2021/05/07 02:08:40;;;;;;;1.40;0.40;;;24.80;94.10;;;;;;4993415;28;20612;-75
2021/05/07 02:11:07;;;;;;;2.97;0.47;;;24.60;94.10;;;;;;4996265;28;20038;-76
2021/05/07 02:13:35;;;;;;;4.28;1.15;;;24.40;94.70;;;;;;4988598;28;20027;-75
2021/05/07 02:16:02;;;;;;;4.38;0.70;;;24.10;94.90;;;;;;4987529;28;20044;-75
2021/05/07 02:18:30;;;;;;;3.25;0.80;;;23.70;95.90;;;;;;4989244;28;20497;-76
2021/05/07 02:20:57;;;;;;;3.88;1.10;;;23.60;96.10;;;;;;4993288;28;20531;-74
2021/05/07 02:23:24;;;;;;;3.20;0.70;;;23.60;96.00;;;;;;4989992;28;20042;-74
2021/05/07 02:25:52;;;;;;;3.90;0.70;;;23.50;96.50;;;;;;4990363;28;20471;-74
2021/05/07 02:28:19;;;;;;;6.13;0.93;;;23.80;96.50;;;;;;4989500;28;20480;-75
2021/05/07 02:30:47;;;;;;;3.58;0.70;;;24.10;96.00;;;;;;4993433;28;20385;-75
2021/05/07 02:33:14;;;;;;;3.55;0.60;;;24.50;95.60;;;;;;4989943;28;20031;-75
2021/05/07 02:35:41;;;;;;;3.65;0.60;;;24.70;94.90;;;;;;4992234;28;20042;-75
2021/05/07 02:38:12;;;;;;;1.90;0.60;;;24.50;95.00;;;;;;4994255;28;20021;-75
2021/05/07 02:40:40;;;;;;;1.67;0.50;;;24.30;95.30;;;;;;4991945;28;20022;-74
2021/05/07 02:43:10;;;;;;;3.20;0.50;;;24.80;94.90;;;;;;4992146;28;20526;-76
2021/05/07 02:45:37;;;;;;;3.42;1.00;;;25.20;94.20;;;;;;4995404;28;20028;-75
2021/05/07 02:48:06;;;;;;;2.88;0.63;;;25.00;93.90;;;;;;4992677;28;20041;-75
2021/05/07 02:50:33;;;;;;;3.53;0.60;;;24.80;93.80;;;;;;4991606;28;20053;-74
2021/05/07 02:53:00;;;;;;;3.50;1.15;;;24.60;94.30;;;;;;4993593;28;20026;-76
2021/05/07 02:55:28;;;;;;;2.45;0.50;;;24.40;95.20;;;;;;4996390;28;20415;-76
2021/05/07 02:57:55;;;;;;;3.78;0.85;;;24.40;95.30;;;;;;4996369;28;20018;-76
2021/05/07 03:00:23;;;;;;;3.95;0.70;;;24.10;95.90;;;;;;4996991;28;20030;-75
2021/05/07 03:02:50;;;;;;;4.30;0.93;;;23.80;97.20;;;;;;4995260;28;20034;-76
2021/05/07 03:05:18;;;;;;;3.42;0.95;;;23.60;97.20;;;;;;4991964;28;20030;-76
2021/05/07 03:07:45;;;;;;;1.55;0.52;;;23.50;98.00;;;;;;4993303;28;20080;-76
2021/05/07 03:10:13;;;;;;;3.13;0.60;;;23.50;97.70;;;;;;4992589;28;20025;-75
2021/05/07 03:12:40;;;;;;;2.45;0.52;;;23.40;97.40;;;;;;4991248;28;20361;-74
2021/05/07 03:15:08;;;;;;;3.10;1.10;;;23.40;97.30;;;;;;4991570;28;20177;-75
2021/05/07 03:17:36;;;;;;;3.75;1.30;;;23.20;97.80;;;;;;4990546;28;20501;-74
2021/05/07 03:20:05;;;;;;;2.50;0.98;;;23.20;97.50;;;;;;4992310;28;20033;-75
2021/05/07 03:22:33;;;;;;;2.72;0.98;;;23.30;97.80;;;;;;5002941;28;20038;-76
2021/05/07 03:25:00;;;;;;;3.05;1.17;;;23.30;97.60;;;;;;4992098;28;20362;-74
2021/05/07 03:27:28;;;;;;;4.05;1.08;;;23.40;96.70;;;;;;4991719;28;20054;-75
2021/05/07 03:29:56;;;;;;;5.60;1.30;;;23.50;96.60;;;;;;4989139;28;20393;-75
2021/05/07 03:32:23;;;;;;;3.25;1.35;;;23.50;97.00;;;;;;4993149;28;20049;-76
2021/05/07 03:34:50;;;;;;;5.05;1.50;;;23.60;96.50;;;;;;4988713;28;20512;-77
2021/05/07 03:37:19;;;;;;;5.60;1.38;;;23.60;96.80;;;;;;4989699;28;20543;-75
2021/05/07 03:39:46;;;;;;;3.17;1.30;;;23.70;96.80;;;;;;4989980;28;20053;-75
2021/05/07 03:42:14;;;;;;;10.18;2.05;;;23.60;97.00;;;;;;4991163;28;20062;-73
2021/05/07 03:44:41;;;;;;;4.90;1.35;;;23.50;96.20;;;;;;4991140;28;20029;-74
2021/05/07 03:47:09;;;;;;;6.95;2.05;;;23.60;95.80;;;;;;4990295;28;20088;-75
2021/05/07 03:49:36;;;;;;;5.13;1.52;;;23.70;96.10;;;;;;4995707;28;20070;-77
2021/05/07 03:52:03;;;;;;;5.13;1.95;;;23.70;95.80;;;;;;4990581;28;20480;-75
2021/05/07 03:54:31;;;;;;;5.05;1.25;;;23.80;95.90;;;;;;4989845;28;20780;-74
2021/05/07 03:56:58;;;;;;;6.35;1.17;;;23.80;96.30;;;;;;4985236;28;20077;-74
2021/05/07 03:59:25;;;;;;;5.05;1.92;;;24.00;96.20;;;;;;4989259;28;20032;-77
2021/05/07 04:01:53;;;;;;;3.22;1.30;;;24.30;95.40;;;;;;4985204;28;20037;-76
2021/05/07 04:04:20;;;;;;;8.43;1.42;;;24.40;95.50;;;;;;4987920;28;20034;-73
2021/05/07 04:06:48;;;;;;;4.55;1.33;;;24.40;94.80;;;;;;4990140;28;20034;-73
2021/05/07 04:09:22;;;;;;;8.80;2.03;;;24.30;94.30;;;;;;4987219;28;20050;-74
2021/05/07 04:12:10;;;;;;;4.80;1.27;;;24.40;95.40;;;;;;4988970;28;20022;-73
2021/05/07 04:14:38;;;;;;;3.25;1.52;;;24.40;94.20;;;;;;4986069;28;20406;-72
2021/05/07 04:17:05;;;;;;;2.92;0.90;;;24.20;94.60;;;;;;4990028;28;20118;-71
2021/05/07 04:19:32;;;;;;;6.88;1.15;;;24.00;94.60;;;;;;4989686;28;20374;-72
2021/05/07 04:22:00;;;;;;;5.15;1.75;;;24.10;94.70;;;;;;4986692;28;20117;-72
2021/05/07 04:24:27;;;;;;;5.72;1.40;;;24.10;95.00;;;;;;4988043;28;20029;-72
2021/05/07 04:26:55;;;;;;;5.70;1.80;;;24.10;94.30;;;;;;4991138;28;20085;-72
2021/05/07 04:29:23;;;;;;;7.32;1.20;;;24.00;94.60;;;;;;4988033;28;20091;-72
2021/05/07 04:31:51;;;;;;;7.57;1.20;;;24.00;94.50;;;;;;4989114;28;20027;-74
2021/05/07 04:34:18;;;;;;;6.53;1.30;;;24.00;95.10;;;;;;4988381;28;20037;-73
2021/05/07 04:36:45;;;;;;;9.38;2.15;;;23.90;95.10;;;;;;4989727;28;20053;-73
2021/05/07 04:39:13;;;;;;;11.73;1.80;;;23.80;94.50;;;;;;4994028;28;20040;-73
2021/05/07 04:41:41;;;;;;;8.00;1.50;;;23.80;95.50;;;;;;4986451;28;20500;-74
2021/05/07 04:44:08;;;;;;;6.32;1.92;;;23.60;95.50;;;;;;4990641;28;20121;-74
2021/05/07 04:46:39;;;;;;;6.50;1.75;;;23.40;96.20;;;;;;4989022;28;20038;-73
2021/05/07 04:49:06;;;;;;;6.22;1.50;;;23.20;96.70;;;;;;4989505;28;20051;-73
2021/05/07 04:51:33;;;;;;;6.40;2.55;;;22.90;96.40;;;;;;4989299;28;20080;-73
2021/05/07 04:54:02;;;;;;;10.05;2.78;;;22.50;96.40;;;;;;5002807;28;20022;-74
2021/05/07 04:56:29;;;;;;;8.18;2.88;;;22.30;96.70;;;;;;4989522;28;20108;-74
2021/05/07 04:58:57;;;;;;;11.77;2.78;;;22.20;97.00;;;;;;4984908;28;20085;-74
2021/05/07 05:01:24;;;;;;;9.25;2.38;;;22.20;96.80;;;;;;4983700;28;20025;-72
2021/05/07 05:03:51;;;;;;;7.47;1.98;;;22.10;96.90;;;;;;4993449;28;20540;-74
2021/05/07 05:06:19;;;;;;;11.23;2.58;;;22.10;97.50;;;;;;4985809;28;20038;-72
2021/05/07 05:08:46;;;;;;;11.45;2.50;;;22.10;96.80;;;;;;5003127;28;20422;-74
2021/05/07 05:11:13;;;;;;;18.38;4.07;;;22.10;97.10;;;;;;4983325;28;20061;-72
2021/05/07 05:13:41;;;;;;;6.38;2.20;;;22.20;97.10;;;;;;4987813;28;20117;-73
2021/05/07 05:16:09;;;;;;;9.40;3.10;;;22.20;97.00;;;;;;4988267;28;20374;-74
2021/05/07 05:18:39;;;;;;;7.85;2.28;;;22.20;97.00;;;;;;4989088;28;20051;-73
2021/05/07 05:21:09;;;;;;;11.00;2.53;;;22.10;96.80;;;;;;4990089;28;20026;-74
2021/05/07 05:23:41;;;;;;;7.55;1.83;;;22.10;97.20;;;;;;4989554;28;20049;-75
2021/05/07 05:26:11;;;;;;;9.70;1.98;;;22.00;97.20;;;;;;4989342;28;20436;-73
2021/05/07 05:28:38;;;;;;;11.88;2.70;;;22.00;97.00;;;;;;4987680;28;20029;-74
2021/05/07 05:31:06;;;;;;;11.30;2.70;;;21.90;97.10;;;;;;4990018;28;20053;-74
2021/05/07 05:33:33;;;;;;;5.82;1.70;;;22.00;97.00;;;;;;4996849;28;20287;-73
2021/05/07 05:36:01;;;;;;;13.98;2.80;;;22.00;96.50;;;;;;4992270;28;20046;-74
2021/05/07 05:38:28;;;;;;;9.05;1.70;;;22.00;96.30;;;;;;4996530;28;20022;-74
2021/05/07 05:40:56;;;;;;;6.50;1.60;;;22.00;95.80;;;;;;4993041;28;20034;-74
2021/05/07 05:43:23;;;;;;;6.57;1.33;;;22.00;95.90;;;;;;4990998;28;20112;-74
2021/05/07 05:45:51;;;;;;;7.50;1.10;;;21.90;95.70;;;;;;4987943;28;20034;-72
2021/05/07 05:48:18;;;;;;;8.50;1.30;;;21.80;95.60;;;;;;4994196;28;20037;-74
2021/05/07 05:50:52;;;;;;;9.00;2.40;;;21.80;95.00;;;;;;4995386;28;20034;-74
2021/05/07 05:53:20;;;;;;;8.30;1.73;;;21.80;94.90;;;;;;4991597;28;20342;-73
2021/05/07 05:55:48;;;;;;;5.63;1.23;;;21.80;94.90;;;;;;4993640;28;20038;-73
2021/05/07 05:58:15;;;;;;;8.05;1.35;;;21.80;95.20;;;;;;4989474;28;20420;-72
2021/05/07 06:00:43;;;;;;;5.75;1.35;;;21.70;95.20;;;;;;4992088;28;20106;-73
2021/05/07 06:03:10;;;;;;;9.20;1.35;;;21.60;95.30;;;;;;4993733;28;20428;-73
2021/05/07 06:05:37;;;;;;;7.82;1.10;;;21.60;95.00;;;;;;4992022;28;20034;-72
2021/05/07 06:08:05;;;;;;;6.97;1.65;;;21.60;95.00;;;;;;4990562;28;20776;-73
2021/05/07 06:10:32;;;;;;;7.15;1.67;;;21.60;94.80;;;;;;4996761;28;20046;-72
2021/05/07 06:13:00;;;;;;;12.98;3.45;;;21.40;95.10;;;;;;4990273;28;20022;-72
2021/05/07 06:15:27;;;;;;;37.60;22.25;;;21.30;95.40;;;;;;4990816;28;20129;-74
2021/05/07 06:17:54;;;;;;;35.85;23.80;;;21.30;95.10;;;;;;4990115;28;20437;-73
2021/05/07 06:20:22;;;;;;;21.95;15.82;;;21.20;95.10;;;;;;4993494;28;20493;-73
2021/05/07 06:22:50;;;;;;;18.27;11.50;;;21.10;95.70;;;;;;4994076;28;20109;-73
2021/05/07 06:25:21;;;;;;;28.45;14.95;;;21.00;95.60;;;;;;4989825;28;20089;-73
2021/05/07 06:27:48;;;;;;;24.48;14.73;;;21.00;95.80;;;;;;4991884;28;20046;-73
2021/05/07 06:30:16;;;;;;;33.15;20.92;;;20.90;96.00;;;;;;4991350;28;20084;-72
2021/05/07 06:32:44;;;;;;;41.28;22.52;;;20.80;96.30;;;;;;4990416;28;20052;-73
2021/05/07 06:35:12;;;;;;;38.97;20.40;;;20.70;96.30;;;;;;4991199;28;20073;-73
2021/05/07 06:37:41;;;;;;;36.15;19.08;;;20.70;96.60;;;;;;4988244;28;20438;-72
2021/05/07 06:40:09;;;;;;;31.02;19.67;;;20.60;97.00;;;;;;4992544;28;20125;-73
2021/05/07 06:42:37;;;;;;;21.65;14.40;;;20.50;97.40;;;;;;4988550;28;20445;-71
2021/05/07 06:45:12;;;;;;;31.15;20.85;;;20.50;97.60;;;;;;4990001;28;20104;-71
2021/05/07 06:47:40;;;;;;;30.88;21.73;;;20.30;97.70;;;;;;4986428;28;20029;-72
2021/05/07 06:50:08;;;;;;;19.55;12.23;;;20.30;98.10;;;;;;4991108;28;20051;-72
2021/05/07 06:52:36;;;;;;;8.55;4.30;;;20.30;98.00;;;;;;4991224;28;20041;-72
2021/05/07 06:55:04;;;;;;;9.23;4.50;;;20.20;98.00;;;;;;4988934;28;20068;-73
2021/05/07 06:57:32;;;;;;;9.98;4.60;;;20.10;98.10;;;;;;4988423;28;20034;-73
2021/05/07 06:59:59;;;;;;;9.02;4.22;;;20.10;98.20;;;;;;4992693;28;20037;-73
2021/05/07 07:02:27;;;;;;;9.48;4.60;;;20.00;98.40;;;;;;4992803;28;20477;-73
2021/05/07 07:04:54;;;;;;;10.98;5.00;;;20.00;98.60;;;;;;4993520;28;20031;-73
2021/05/07 07:07:24;;;;;;;14.93;5.85;;;19.90;98.40;;;;;;4992516;28;20081;-73
2021/05/07 07:09:51;;;;;;;13.95;5.95;;;19.90;98.50;;;;;;4997824;28;20475;-73
2021/05/07 07:12:19;;;;;;;18.83;5.40;;;19.80;98.60;;;;;;4993172;28;20054;-74
2021/05/07 07:14:46;;;;;;;8.88;4.57;;;19.80;99.00;;;;;;4996826;28;20030;-74
2021/05/07 07:17:16;;;;;;;11.50;4.63;;;19.70;99.20;;;;;;4992249;28;20069;-74
2021/05/07 07:19:43;;;;;;;11.85;2.92;;;19.70;99.40;;;;;;4971751;28;20057;-73
2021/05/07 07:22:12;;;;;;;8.27;2.63;;;19.60;99.10;;;;;;4998326;28;20032;-74
2021/05/07 07:24:40;;;;;;;6.38;2.30;;;19.60;99.40;;;;;;4997322;28;20033;-74
2021/05/07 07:27:07;;;;;;;7.80;2.92;;;19.60;99.50;;;;;;4995552;28;20026;-74
2021/05/07 07:29:35;;;;;;;11.32;3.83;;;19.50;99.50;;;;;;4996683;28;20373;-76
2021/05/07 07:32:02;;;;;;;7.15;1.90;;;19.50;99.80;;;;;;4992938;28;20381;-75
2021/05/07 07:34:29;;;;;;;7.00;2.20;;;19.40;99.90;;;;;;4991163;28;20022;-73
2021/05/07 07:36:57;;;;;;;8.50;2.55;;;19.30;99.90;;;;;;4997514;28;20049;-74
2021/05/07 07:39:24;;;;;;;5.43;1.92;;;19.30;99.90;;;;;;4996304;28;20034;-74
2021/05/07 07:41:52;;;;;;;9.80;2.42;;;19.30;99.90;;;;;;4996583;28;20029;-74
2021/05/07 07:44:19;;;;;;;8.93;2.30;;;19.20;99.90;;;;;;4996786;28;20076;-74
2021/05/07 07:46:47;;;;;;;7.15;1.52;;;19.20;99.90;;;;;;4997032;28;20037;-73
2021/05/07 07:49:15;;;;;;;8.65;2.22;;;19.10;99.90;;;;;;4994971;28;20046;-78
2021/05/07 07:51:43;;;;;;;6.40;2.13;;;19.10;99.90;;;;;;4996343;28;20049;-80
2021/05/07 07:54:12;;;;;;;3.08;1.42;;;19.00;99.90;;;;;;4994270;28;20076;-81
2021/05/07 07:56:40;;;;;;;6.07;1.40;;;18.90;99.90;;;;;;4997497;28;20106;-77
2021/05/07 07:59:08;;;;;;;8.38;1.80;;;18.90;99.90;;;;;;4995850;28;20034;-80
2021/05/07 08:01:37;;;;;;;5.05;1.33;;;18.80;99.90;;;;;;4990890;28;20717;-79
2021/05/07 08:04:05;;;;;;;9.90;1.95;;;18.80;99.90;;;;;;4994760;28;20022;-80
2021/05/07 08:06:33;;;;;;;6.07;3.53;;;18.70;99.90;;;;;;4995142;28;20046;-78
2021/05/07 08:09:01;;;;;;;8.68;4.32;;;18.70;99.90;;;;;;4998245;28;20034;-77
2021/05/07 08:11:28;;;;;;;7.32;3.83;;;18.70;99.90;;;;;;4992304;28;20080;-77
2021/05/07 08:13:56;;;;;;;9.98;4.45;;;18.70;99.90;;;;;;4994476;28;20041;-81
2021/05/07 08:16:23;;;;;;;4.93;1.70;;;18.70;99.90;;;;;;4991175;28;20508;-79
2021/05/07 08:18:51;;;;;;;7.03;1.75;;;18.70;99.90;;;;;;4991458;28;20080;-77
2021/05/07 08:21:18;;;;;;;14.27;3.97;;;18.70;99.90;;;;;;4996822;28;20030;-77
2021/05/07 08:23:46;;;;;;;10.10;3.85;;;18.70;99.90;;;;;;4993343;28;20077;-81
2021/05/07 08:26:13;;;;;;;10.40;3.28;;;18.60;99.90;;;;;;4993454;28;20141;-81
2021/05/07 08:28:41;;;;;;;7.28;2.40;;;18.50;99.90;;;;;;4994980;28;20033;-78
2021/05/07 08:31:08;;;;;;;10.50;2.95;;;18.50;99.90;;;;;;4996920;28;20030;-78
2021/05/07 08:33:35;;;;;;;8.07;2.00;;;18.40;99.90;;;;;;4992607;28;20061;-81
2021/05/07 08:36:03;;;;;;;11.77;3.58;;;18.40;99.90;;;;;;4989458;28;20034;-79
2021/05/07 08:38:30;;;;;;;13.98;3.60;;;18.30;99.90;;;;;;4988714;28;20029;-78
2021/05/07 08:41:02;;;;;;;8.40;3.38;;;18.20;99.90;;;;;;4993353;28;20034;-79
2021/05/07 08:43:30;;;;;;;10.13;3.50;;;18.20;99.90;;;;;;4993679;28;20022;-80
2021/05/07 08:46:03;;;;;;;7.55;3.22;;;18.20;99.90;;;;;;4992037;28;20064;-79
2021/05/07 08:48:32;;;;;;;12.25;5.60;;;18.10;99.90;;;;;;4991835;28;20026;-79
2021/05/07 08:50:59;;;;;;;10.05;5.32;;;18.10;99.90;;;;;;4992840;28;20377;-78
2021/05/07 08:53:27;;;;;;;12.73;6.60;;;18.10;99.90;;;;;;4994766;28;20050;-80
2021/05/07 08:55:55;;;;;;;12.15;7.13;;;18.10;99.90;;;;;;4997503;28;20026;-79
2021/05/07 08:58:22;;;;;;;19.23;7.45;;;18.20;99.90;;;;;;4992532;28;20022;-78
2021/05/07 09:00:50;;;;;;;16.33;8.43;;;18.20;99.90;;;;;;4992916;28;20042;-77
2021/05/07 09:03:18;;;;;;;17.42;9.65;;;18.20;99.90;;;;;;4992255;28;20041;-80
2021/05/07 09:05:46;;;;;;;13.88;8.05;;;18.20;99.90;;;;;;4984738;28;20026;-78
2021/05/07 09:08:14;;;;;;;16.90;7.78;;;18.20;99.90;;;;;;4991461;28;20489;-77
2021/05/07 09:10:45;;;;;;;13.27;5.80;;;18.20;99.90;;;;;;4995327;28;20057;-80
2021/05/07 09:13:19;;;;;;;13.18;6.30;;;18.10;99.90;;;;;;4986705;28;20549;-80
2021/05/07 09:15:48;;;;;;;13.73;5.93;;;18.10;99.90;;;;;;4995112;28;20054;-81
2021/05/07 09:18:18;;;;;;;17.45;7.70;;;18.10;99.90;;;;;;4997232;28;20381;-76
2021/05/07 09:20:50;;;;;;;14.88;7.70;;;18.10;99.90;;;;;;4990194;28;20035;-81
2021/05/07 09:23:18;;;;;;;22.08;9.40;;;18.10;99.90;;;;;;4992271;28;20408;-81
2021/05/07 09:25:52;;;;;;;14.38;7.03;;;18.10;99.90;;;;;;4998771;28;20036;-79
2021/05/07 09:28:19;;;;;;;18.58;6.05;;;18.20;99.90;;;;;;4996607;28;20061;-79
2021/05/07 09:30:47;;;;;;;9.48;4.45;;;18.20;99.90;;;;;;4998391;28;20445;-80
2021/05/07 09:33:17;;;;;;;9.77;3.58;;;18.20;99.90;;;;;;4993360;28;20097;-83
2021/05/07 09:35:45;;;;;;;11.07;3.60;;;18.20;99.90;;;;;;4999888;28;20029;-81
2021/05/07 09:38:16;;;;;;;11.18;3.42;;;18.20;99.90;;;;;;4988758;28;20034;-80
2021/05/07 09:40:44;;;;;;;11.18;3.00;;;18.20;99.90;;;;;;4991693;28;20060;-81
2021/05/07 09:43:15;;;;;;;14.80;5.35;;;18.20;99.90;;;;;;4989933;28;20030;-78
2021/05/07 09:45:46;;;;;;;11.57;4.82;;;18.20;99.90;;;;;;4989493;28;20061;-79
2021/05/07 09:48:17;;;;;;;6.45;4.30;;;18.20;99.90;;;;;;4987676;28;20022;-79
2021/05/07 09:50:46;;;;;;;11.82;5.05;;;18.20;99.90;;;;;;4988575;28;20042;-78
2021/05/07 09:53:18;;;;;;;9.48;5.40;;;18.20;99.90;;;;;;4990910;28;20032;-77
2021/05/07 09:55:47;;;;;;;10.65;4.72;;;18.20;99.90;;;;;;4991386;28;20073;-76
2021/05/07 09:58:14;;;;;;;9.48;3.88;;;18.20;99.90;;;;;;4993834;28;20109;-76
2021/05/07 10:00:42;;;;;;;9.10;2.83;;;18.20;99.90;;;;;;4992033;28;20088;-80
2021/05/07 10:03:10;;;;;;;8.80;3.22;;;18.20;99.90;;;;;;4995178;28;20030;-79
2021/05/07 10:05:38;;;;;;;5.63;3.17;;;18.20;99.90;;;;;;4991960;28;20034;-80
2021/05/07 10:08:06;;;;;;;6.40;3.03;;;18.20;99.90;;;;;;4987016;28;20022;-76
2021/05/07 10:10:41;;;;;;;7.93;2.78;;;18.20;99.90;;;;;;4991595;28;20087;-80
2021/05/07 10:13:32;;;;;;;8.50;3.40;;;18.20;99.90;;;;;;4992133;28;20109;-78
2021/05/07 10:16:04;;;;;;;11.93;4.93;;;18.10;99.90;;;;;;4994345;28;20157;-78
2021/05/07 10:18:33;;;;;;;11.77;3.83;;;18.10;99.90;;;;;;4996353;28;20118;-79
2021/05/07 10:21:05;;;;;;;8.07;2.45;;;18.00;99.90;;;;;;4995489;28;20026;-78
2021/05/07 10:23:34;;;;;;;6.28;2.78;;;17.90;99.90;;;;;;4993218;28;20026;-76
2021/05/07 10:26:05;;;;;;;7.88;2.45;;;17.90;99.90;;;;;;4995427;28;20031;-76
2021/05/07 10:28:47;;;;;;;6.63;2.25;;;17.90;99.90;;;;;;4992890;28;20536;-77
2021/05/07 10:31:16;;;;;;;8.10;3.08;;;17.90;99.90;;;;;;4997016;28;20121;-78
2021/05/07 10:34:03;;;;;;;6.53;2.33;;;17.90;99.90;;;;;;4995939;28;20053;-81
2021/05/07 10:36:47;;;;;;;4.55;1.70;;;17.90;99.90;;;;;;5003436;28;20396;-81
2021/05/07 10:39:24;;;;;;;5.68;1.98;;;17.90;99.90;;;;;;4996300;28;20022;-78
2021/05/07 10:41:53;;;;;;;2.83;1.00;;;18.00;99.90;;;;;;4998499;28;20041;-78
2021/05/07 10:44:23;;;;;;;4.80;1.60;;;18.00;99.90;;;;;;4995741;28;20022;-77
2021/05/07 10:47:07;;;;;;;2.33;0.95;;;17.90;99.90;;;;;;4994187;28;20164;-77
2021/05/07 10:49:36;;;;;;;4.53;0.85;;;17.90;99.90;;;;;;4997781;28;20046;-76
2021/05/07 10:52:08;;;;;;;2.10;1.33;;;17.90;99.90;;;;;;5002098;28;20025;-79
2021/05/07 10:54:44;;;;;;;5.18;1.95;;;17.80;99.90;;;;;;4998923;28;20030;-80
2021/05/07 10:57:32;;;;;;;4.53;1.92;;;17.80;99.90;;;;;;4992367;28;20427;-79
2021/05/07 11:00:03;;;;;;;6.25;1.60;;;17.70;99.90;;;;;;4992131;28;20084;-79
2021/05/07 11:02:47;;;;;;;3.30;1.00;;;17.60;99.90;;;;;;4996192;28;20960;-78
2021/05/07 11:05:54;;;;;;;4.03;1.75;;;17.60;99.90;;;;;;5000421;28;20037;-75
2021/05/07 11:08:31;;;;;;;;;;;17.50;99.90;;;;;;5001291;28;20026;-76
2021/05/07 11:10:58;;;;;;;4.68;3.15;;;17.40;99.90;;;;;;4996209;28;19929;-79
2021/05/07 11:13:26;;;;;;;12.05;5.32;;;17.30;99.90;;;;;;4996194;28;20041;-77
2021/05/07 11:16:01;;;;;;;12.98;6.22;;;17.20;99.90;;;;;;5000685;28;20077;-77
2021/05/07 11:18:31;;;;;;;8.18;5.53;;;17.10;99.90;;;;;;5007260;28;20508;-77
2021/05/07 11:21:11;;;;;;;7.50;4.45;;;17.00;99.90;;;;;;4993473;28;20038;-79
2021/05/07 11:23:38;;;;;;;6.38;4.07;;;17.00;99.90;;;;;;4993476;28;20024;-77
2021/05/07 11:26:09;;;;;;;9.57;4.43;;;17.00;99.90;;;;;;4998099;28;20060;-80
2021/05/07 11:28:44;;;;;;;7.50;4.55;;;16.90;99.90;;;;;;4999133;28;20034;-77
2021/05/07 11:31:12;;;;;;;13.00;4.72;;;16.90;99.90;;;;;;4997968;28;20018;-77
2021/05/07 11:33:43;;;;;;;9.93;4.35;;;16.80;99.90;;;;;;4990642;28;20033;-78
2021/05/07 11:36:14;;;;;;;7.72;4.53;;;16.80;99.90;;;;;;4998166;28;20033;-77
2021/05/07 11:38:42;;;;;;;9.82;5.25;;;16.80;99.90;;;;;;4995595;28;20105;-77
2021/05/07 11:41:19;;;;;;;8.75;4.85;;;16.80;99.90;;;;;;4993929;28;20076;-76
2021/05/07 11:43:49;;;;;;;10.90;6.88;;;16.80;99.90;;;;;;4992599;28;21484;-78
2021/05/07 11:46:17;;;;;;;8.82;5.38;;;16.80;99.90;;;;;;4994986;28;20037;-78
2021/05/07 11:48:47;;;;;;;8.93;5.03;;;16.80;99.90;;;;;;4992897;28;20385;-77
2021/05/07 11:51:15;;;;;;;12.77;5.68;;;16.70;99.90;;;;;;4991765;28;20093;-77
2021/05/07 11:53:43;;;;;;;12.18;5.35;;;16.70;99.90;;;;;;4996936;28;20053;-78
2021/05/07 11:56:22;;;;;;;10.93;5.38;;;16.70;99.90;;;;;;4993488;28;20112;-75
2021/05/07 11:58:52;;;;;;;11.60;5.47;;;16.60;99.90;;;;;;4992189;28;20488;-77
2021/05/07 12:01:24;;;;;;;9.70;5.47;;;16.60;99.90;;;;;;4995922;28;20030;-79
2021/05/07 12:03:55;;;;;;;10.60;5.10;;;16.60;99.90;;;;;;4996779;28;20421;-78
2021/05/07 12:06:29;;;;;;;9.45;4.80;;;16.60;99.90;;;;;;4995093;28;20332;-81
2021/05/07 12:09:08;;;;;;;9.15;4.68;;;16.60;99.90;;;;;;4990564;28;20152;-78
2021/05/07 12:11:36;;;;;;;9.63;4.28;;;16.50;99.90;;;;;;4994904;28;20041;-79
2021/05/07 12:14:12;;;;;;;5.95;3.83;;;16.40;99.90;;;;;;4991862;28;20022;-79
2021/05/07 12:16:39;;;;;;;7.53;4.45;;;16.40;99.90;;;;;;4992869;28;20100;-80
2021/05/07 12:19:07;;;;;;;7.60;4.57;;;16.30;99.90;;;;;;4995380;28;20076;-79
2021/05/07 12:21:45;;;;;;;8.95;5.20;;;16.30;99.90;;;;;;4998172;28;20050;-77
2021/05/07 12:24:27;;;;;;;8.45;4.75;;;16.30;99.90;;;;;;4993157;28;20030;-78
2021/05/07 12:26:55;;;;;;;8.65;4.55;;;16.40;99.90;;;;;;4997843;28;20477;-78
2021/05/07 12:29:33;;;;;;;10.27;5.07;;;16.40;99.90;;;;;;4998465;28;20469;-76
2021/05/07 12:32:03;;;;;;;10.20;6.07;;;16.40;99.90;;;;;;4995593;28;20109;-80
2021/05/07 12:34:31;;;;;;;10.18;5.85;;;16.40;99.90;;;;;;4994578;28;20029;-78
2021/05/07 12:37:01;;;;;;;12.60;6.82;;;16.40;99.90;;;;;;4997264;28;20073;-78
2021/05/07 12:39:32;;;;;;;10.00;5.85;;;16.40;99.90;;;;;;4988388;28;20388;-80
2021/05/07 12:42:02;;;;;;;6.28;4.38;;;16.50;99.90;;;;;;4993720;28;20041;-80
2021/05/07 12:44:29;;;;;;;11.50;5.00;;;16.50;99.90;;;;;;4996293;28;20040;-79
2021/05/07 12:46:58;;;;;;;10.80;4.75;;;16.50;99.90;;;;;;4990495;28;20537;-79
2021/05/07 12:49:25;;;;;;;4.88;3.85;;;16.50;99.90;;;;;;4992279;28;20053;-80
2021/05/07 12:52:02;;;;;;;7.72;3.67;;;16.50;99.90;;;;;;4991613;28;20141;-81